createdAt,value
2022-12-18T00:01:28.711Z,92.12
2022-12-18T00:03:59.578Z,92.51
2022-12-18T00:06:31.189Z,92.48
2022-12-18T00:09:02.233Z,92.13
2022-12-18T00:11:33.917Z,92.12
2022-12-18T00:14:03.843Z,92.51
2022-12-18T00:16:35.073Z,92.71
2022-12-18T00:19:05.349Z,93.14
2022-12-18T00:21:35.893Z,93.42
2022-12-18T00:24:06.345Z,93.44
2022-12-18T00:26:38.088Z,93.85
2022-12-18T00:29:19.324Z,93.45
2022-12-18T00:31:50.766Z,92.87
2022-12-18T00:34:20.946Z,92.53
2022-12-18T00:36:51.039Z,92.23
2022-12-18T00:39:20.623Z,92.64
2022-12-18T00:42:09.110Z,93.26
2022-12-18T00:44:39.193Z,94.10
2022-12-18T00:47:09.919Z,94.83
2022-12-18T00:49:39.855Z,95.52
2022-12-18T00:52:09.365Z,96.10
2022-12-18T00:54:38.952Z,96.67
2022-12-18T00:57:08.940Z,97.27
2022-12-18T00:59:38.641Z,97.49
2022-12-18T01:02:08.269Z,97.50
2022-12-18T01:04:38.647Z,97.75
2022-12-18T01:07:08.165Z,97.75
2022-12-18T01:09:40.310Z,97.52
2022-12-18T01:12:10.500Z,96.83
2022-12-18T01:14:40.330Z,97.36
2022-12-18T01:17:09.942Z,97.38
2022-12-18T01:19:39.450Z,97.22
2022-12-18T01:22:12.209Z,97.03
2022-12-18T01:24:42.393Z,96.54
2022-12-18T01:27:12.419Z,96.72
2022-12-18T01:29:42.746Z,96.35
2022-12-18T01:32:12.652Z,96.65
2022-12-18T01:34:42.167Z,97.20
2022-12-18T01:37:12.510Z,97.55
2022-12-18T01:39:43.290Z,97.69
2022-12-18T01:42:19.058Z,97.56
2022-12-18T01:44:59.326Z,97.34
2022-12-18T01:47:51.995Z,97.41
2022-12-18T01:50:34.226Z,97.92
2022-12-18T01:53:13.923Z,98.24
2022-12-18T01:55:56.414Z,98.00
2022-12-18T01:59:00.091Z,98.35
2022-12-18T02:01:32.970Z,98.53
2022-12-18T02:04:24.705Z,98.52
2022-12-18T02:07:22.357Z,97.29
2022-12-18T02:10:02.953Z,96.98
2022-12-18T02:13:15.883Z,96.60
2022-12-18T02:16:09.386Z,96.68
2022-12-18T02:18:44.662Z,96.53
2022-12-18T02:21:34.154Z,96.86
2022-12-18T02:38:19.298Z,97.62
2022-12-18T02:40:54.404Z,97.48
2022-12-18T02:43:25.807Z,97.70
2022-12-18T02:46:01.212Z,97.93
2022-12-18T02:48:37.206Z,98.02
2022-12-18T02:54:34.199Z,98.05
2022-12-18T02:57:22.197Z,97.36
2022-12-18T03:00:04.913Z,97.68
2022-12-18T03:03:03.894Z,97.56
2022-12-18T03:05:53.728Z,97.42
2022-12-18T03:08:25.563Z,97.33
2022-12-18T03:11:02.821Z,97.02
2022-12-18T03:13:40.186Z,97.03
2022-12-18T03:16:14.757Z,97.20
2022-12-18T03:18:54.634Z,96.78
2022-12-18T03:21:30.815Z,96.44
2022-12-18T03:24:02.193Z,97.16
2022-12-18T03:26:33.009Z,98.19
2022-12-18T03:29:14.089Z,98.57
2022-12-18T03:31:47.893Z,98.80
2022-12-18T03:34:24.135Z,98.79
2022-12-18T03:36:53.930Z,98.50
2022-12-18T03:39:27.258Z,98.64
2022-12-18T03:42:31.741Z,98.28
2022-12-18T03:45:14.139Z,97.88
2022-12-18T03:47:55.810Z,97.25
2022-12-18T03:50:41.830Z,96.96
2022-12-18T03:53:52.069Z,97.62
2022-12-18T03:56:28.916Z,98.02
2022-12-18T03:59:03.422Z,98.61
2022-12-18T04:01:43.296Z,99.36
2022-12-18T04:04:18.197Z,99.49
2022-12-18T04:06:50.512Z,99.84
2022-12-18T04:09:23.155Z,99.86
2022-12-18T04:11:54.840Z,99.73
2022-12-18T04:14:25.975Z,99.97
2022-12-18T04:16:59.601Z,99.89
2022-12-18T04:19:33.663Z,99.99
2022-12-18T04:22:05.702Z,99.99
2022-12-18T04:24:42.804Z,99.99
2022-12-18T04:27:19.958Z,99.99
2022-12-18T04:29:52.401Z,99.99
2022-12-18T04:32:22.453Z,99.99
2022-12-18T04:34:52.653Z,99.99
2022-12-18T04:37:22.259Z,99.99
2022-12-18T04:39:53.260Z,99.99
2022-12-18T04:42:29.819Z,99.99
2022-12-18T04:45:00.402Z,99.99
2022-12-18T04:47:29.924Z,99.99
2022-12-18T04:49:59.402Z,99.99
2022-12-18T04:52:29.246Z,99.99
2022-12-18T04:54:58.796Z,99.99
2022-12-18T04:57:28.624Z,99.99
2022-12-18T04:59:58.089Z,99.99
2022-12-18T05:02:28.018Z,99.99
2022-12-18T05:04:57.586Z,99.99
2022-12-18T05:07:27.263Z,99.99
2022-12-18T05:09:56.791Z,99.99
2022-12-18T05:12:27.034Z,98.91
2022-12-18T05:14:56.520Z,97.60
2022-12-18T05:17:26.487Z,96.80
2022-12-18T05:19:55.944Z,95.77
2022-12-18T05:22:25.466Z,95.23
2022-12-18T05:24:54.991Z,94.75
2022-12-18T05:27:24.493Z,95.13
2022-12-18T05:29:54.008Z,95.03
2022-12-18T05:32:23.530Z,93.87
2022-12-18T05:34:52.992Z,94.10
2022-12-18T05:37:22.954Z,94.18
2022-12-18T05:39:52.444Z,94.31
2022-12-18T05:42:22.142Z,94.83
2022-12-18T05:44:51.667Z,94.84
2022-12-18T05:47:21.177Z,95.05
2022-12-18T05:49:50.651Z,95.31
2022-12-18T05:52:20.124Z,95.69
2022-12-18T05:54:49.866Z,96.08
2022-12-18T05:57:19.629Z,96.37
2022-12-18T05:59:49.097Z,96.16
2022-12-18T06:02:18.734Z,96.35
2022-12-18T06:04:48.327Z,96.48
2022-12-18T06:07:17.805Z,96.25
2022-12-18T06:09:47.537Z,96.45
2022-12-18T06:12:17.052Z,96.81
2022-12-18T06:14:46.929Z,97.21
2022-12-18T06:17:16.412Z,98.07
2022-12-18T06:19:45.888Z,99.69
2022-12-18T06:22:15.403Z,99.99
2022-12-18T06:24:45.085Z,99.99
2022-12-18T06:27:14.565Z,99.99
2022-12-18T06:29:44.437Z,99.99
2022-12-18T06:32:14.113Z,99.99
2022-12-18T06:34:43.579Z,99.99
2022-12-18T06:37:13.162Z,99.99
2022-12-18T06:39:42.644Z,99.99
2022-12-18T06:42:12.138Z,99.99
2022-12-18T06:44:41.640Z,99.99
2022-12-18T06:47:11.123Z,99.99
2022-12-18T06:49:41.081Z,99.99
2022-12-18T06:52:10.763Z,99.99
2022-12-18T06:54:40.619Z,99.99
2022-12-18T06:57:10.163Z,99.99
2022-12-18T06:59:39.656Z,99.99
2022-12-18T07:02:09.297Z,99.99
2022-12-18T07:04:39.409Z,99.99
2022-12-18T07:07:08.912Z,99.99
2022-12-18T07:09:38.488Z,99.99
2022-12-18T07:12:08.914Z,99.99
2022-12-18T07:14:38.853Z,99.99
2022-12-18T07:17:08.645Z,99.99
2022-12-18T07:19:38.288Z,99.99
2022-12-18T07:22:07.795Z,99.99
2022-12-18T07:24:37.583Z,99.99
2022-12-18T07:27:07.143Z,99.99
2022-12-18T07:29:38.442Z,99.99
2022-12-18T07:32:09.356Z,99.99
2022-12-18T07:34:38.976Z,99.99
2022-12-18T07:37:08.617Z,99.99
2022-12-18T07:39:38.249Z,99.99
2022-12-18T07:42:26.342Z,99.99
2022-12-18T07:44:57.072Z,99.99
2022-12-18T07:47:27.717Z,99.99
2022-12-18T07:49:59.296Z,99.99
2022-12-18T07:52:29.615Z,99.99
2022-12-18T07:54:59.408Z,99.99
2022-12-18T08:00:19.769Z,99.99
2022-12-18T08:02:51.969Z,99.99
2022-12-18T08:05:22.955Z,99.99
2022-12-18T08:07:52.755Z,99.99
2022-12-18T08:10:22.684Z,99.99
2022-12-18T08:12:53.789Z,99.99
2022-12-18T08:15:23.693Z,99.99
2022-12-18T08:17:53.509Z,99.99
2022-12-18T08:20:23.019Z,99.99
2022-12-18T08:22:53.449Z,99.99
2022-12-18T08:25:22.960Z,99.99
2022-12-18T08:27:52.449Z,99.99
2022-12-18T08:30:21.948Z,99.99
2022-12-18T08:32:55.744Z,99.99
2022-12-18T08:35:25.850Z,99.99
2022-12-18T08:37:55.555Z,99.99
2022-12-18T08:40:25.016Z,99.99
2022-12-18T08:43:12.827Z,99.99
2022-12-18T08:45:43.003Z,99.99
2022-12-18T08:48:17.822Z,99.99
2022-12-18T08:51:00.675Z,99.99
2022-12-18T08:53:34.150Z,99.99
2022-12-18T08:56:06.467Z,99.99
2022-12-18T08:58:36.570Z,99.99
2022-12-18T09:01:11.526Z,99.99
2022-12-18T09:03:41.862Z,99.99
2022-12-18T09:06:16.219Z,99.99
2022-12-18T09:08:49.490Z,99.99
2022-12-18T09:11:25.278Z,99.99
2022-12-18T09:13:56.473Z,99.99
2022-12-18T09:16:32.001Z,99.99
2022-12-18T09:19:03.511Z,99.99
2022-12-18T09:21:37.078Z,99.99
2022-12-18T09:24:08.913Z,99.99
2022-12-18T09:26:39.546Z,99.99
2022-12-18T09:29:10.886Z,99.99
2022-12-18T09:31:41.584Z,99.99
2022-12-18T09:34:11.131Z,99.99
2022-12-18T09:36:41.560Z,99.99
2022-12-18T09:39:11.572Z,99.99
2022-12-18T09:41:55.551Z,99.99
2022-12-18T09:44:46.160Z,99.99
2022-12-18T09:47:40.164Z,99.99
2022-12-18T09:50:31.801Z,99.99
2022-12-18T09:53:25.736Z,99.99
2022-12-18T09:55:56.727Z,99.99
2022-12-18T09:58:34.723Z,99.99
2022-12-18T10:01:04.681Z,99.99
2022-12-18T10:03:34.754Z,99.99
2022-12-18T10:06:08.057Z,99.99
2022-12-18T10:09:12.422Z,99.99
2022-12-18T10:11:54.776Z,99.99
2022-12-18T10:14:34.175Z,99.99
2022-12-18T10:17:16.154Z,99.99
2022-12-18T10:19:58.049Z,99.99
2022-12-18T10:22:33.819Z,99.99
2022-12-18T10:25:18.662Z,99.99
2022-12-18T10:27:48.790Z,99.99
2022-12-18T10:30:23.150Z,99.99
2022-12-18T10:32:53.279Z,99.99
2022-12-18T10:35:29.166Z,99.99
2022-12-18T10:38:19.287Z,99.99
2022-12-18T10:40:53.839Z,99.99
2022-12-18T10:43:39.855Z,99.99
2022-12-18T10:46:12.238Z,99.99
2022-12-18T10:48:49.737Z,99.99
2022-12-18T10:51:39.411Z,99.99
2022-12-18T10:54:24.542Z,99.99
2022-12-18T10:56:53.830Z,99.99
2022-12-18T10:59:23.649Z,99.99
2022-12-18T11:01:53.630Z,99.99
2022-12-18T11:04:37.485Z,99.99
2022-12-18T11:07:10.337Z,99.99
2022-12-18T11:09:42.337Z,99.99
2022-12-18T11:12:22.319Z,99.99
2022-12-18T11:14:55.295Z,99.99
2022-12-18T11:17:31.201Z,99.99
2022-12-18T11:20:09.039Z,99.99
2022-12-18T11:22:40.533Z,99.99
2022-12-18T11:25:32.304Z,99.99
2022-12-18T11:28:27.338Z,99.99
2022-12-18T11:31:17.311Z,99.99
2022-12-18T11:37:02.052Z,99.99
2022-12-18T11:40:03.936Z,99.99
2022-12-18T11:42:38.172Z,99.99
2022-12-18T11:45:23.361Z,99.99
2022-12-18T11:47:58.473Z,99.99
2022-12-18T11:50:30.890Z,99.99
2022-12-18T11:53:05.468Z,99.99
2022-12-18T11:56:25.190Z,99.99
2022-12-18T11:59:22.531Z,99.99
2022-12-18T12:02:18.358Z,99.99
2022-12-18T12:05:06.477Z,99.99
2022-12-18T12:08:06.816Z,99.99
2022-12-18T12:10:43.000Z,99.99
2022-12-18T12:13:27.482Z,99.99
2022-12-18T12:15:58.095Z,99.99
2022-12-18T12:18:55.646Z,99.99
2022-12-18T12:21:38.812Z,99.99
2022-12-18T12:24:23.664Z,99.99
2022-12-18T12:27:36.290Z,99.99
2022-12-18T12:30:21.015Z,99.99
2022-12-18T12:33:16.379Z,99.99
2022-12-18T12:36:09.448Z,99.99
2022-12-18T12:38:53.554Z,99.99
2022-12-18T12:41:46.843Z,99.99
2022-12-18T12:44:31.148Z,99.99
2022-12-18T12:47:07.125Z,99.99
2022-12-18T12:49:40.651Z,99.99
2022-12-18T12:52:19.050Z,99.99
2022-12-18T12:54:50.594Z,99.99
2022-12-18T12:57:37.770Z,99.99
2022-12-18T13:00:21.701Z,99.99
2022-12-18T13:03:02.068Z,99.99
2022-12-18T13:05:41.959Z,99.99
2022-12-18T13:08:15.483Z,99.99
2022-12-18T13:10:47.477Z,99.99
2022-12-18T13:13:23.774Z,99.99
2022-12-18T13:16:09.233Z,99.99
2022-12-18T13:18:39.392Z,99.99
2022-12-18T13:21:39.449Z,99.99
2022-12-18T13:24:25.029Z,99.99
2022-12-18T13:26:55.761Z,99.99
2022-12-18T13:29:46.875Z,99.99
2022-12-18T13:32:28.299Z,99.99
2022-12-18T13:35:33.478Z,99.99
2022-12-18T13:38:04.046Z,99.99
2022-12-18T13:40:43.638Z,99.99
2022-12-18T13:43:22.256Z,99.99
2022-12-18T13:46:02.795Z,99.99
2022-12-18T13:48:36.284Z,99.99
2022-12-18T13:51:12.308Z,99.99
2022-12-18T13:53:55.979Z,99.99
2022-12-18T13:56:29.571Z,99.99
2022-12-18T13:59:23.226Z,99.99
2022-12-18T14:01:58.404Z,99.99
2022-12-18T14:04:33.447Z,99.99
2022-12-18T14:07:25.261Z,99.99
2022-12-18T14:13:02.251Z,99.99
2022-12-18T14:15:44.672Z,99.99
2022-12-18T14:18:20.621Z,99.99
2022-12-18T14:21:01.249Z,99.99
2022-12-18T14:23:45.023Z,99.99
2022-12-18T14:26:32.862Z,99.99
2022-12-18T14:29:21.574Z,97.95
2022-12-18T14:32:18.760Z,99.28
2022-12-18T14:34:53.953Z,98.86
2022-12-18T14:37:27.046Z,98.89
2022-12-18T14:40:10.961Z,99.33
2022-12-18T14:42:41.606Z,99.51
2022-12-18T14:45:41.633Z,99.99
2022-12-18T14:48:36.085Z,99.99
2022-12-18T14:51:07.578Z,99.99
2022-12-18T14:53:40.207Z,99.99
2022-12-18T14:56:28.048Z,99.99
2022-12-18T14:58:58.997Z,99.99
2022-12-18T15:01:40.503Z,99.99
2022-12-18T15:04:31.316Z,99.99
2022-12-18T15:07:13.578Z,99.99
2022-12-18T15:10:12.903Z,99.99
2022-12-18T15:13:03.221Z,99.99
2022-12-18T15:15:36.208Z,99.99
2022-12-18T15:18:15.298Z,99.99
2022-12-18T15:21:12.102Z,99.99
2022-12-18T15:23:49.148Z,99.99
2022-12-18T15:26:21.791Z,99.99
2022-12-18T15:28:55.026Z,99.99
2022-12-18T15:31:26.715Z,99.99
2022-12-18T15:33:56.601Z,99.99
2022-12-18T15:36:27.586Z,99.99
2022-12-18T15:39:04.929Z,97.48
2022-12-18T15:41:38.581Z,98.06
2022-12-18T15:44:40.494Z,97.11
2022-12-18T15:47:15.605Z,96.62
2022-12-18T15:49:45.767Z,94.95
2022-12-18T15:52:27.833Z,92.10
2022-12-18T15:55:15.677Z,89.51
2022-12-18T15:57:45.773Z,89.56
2022-12-18T16:00:16.115Z,87.13
2022-12-18T16:02:46.268Z,90.89
2022-12-18T16:05:20.988Z,92.63
2022-12-18T16:07:51.289Z,92.91
2022-12-18T16:10:21.760Z,90.73
2022-12-18T16:12:51.350Z,90.44
2022-12-18T16:15:24.471Z,88.62
2022-12-18T16:17:54.870Z,88.85
2022-12-18T16:20:25.691Z,85.58
2022-12-18T16:22:56.091Z,86.48
2022-12-18T16:25:30.265Z,88.63
2022-12-18T16:28:00.424Z,89.67
2022-12-18T16:30:37.965Z,88.84
2022-12-18T16:33:08.872Z,90.96
2022-12-18T16:35:39.231Z,91.10
2022-12-18T16:38:08.953Z,88.04
2022-12-18T16:41:00.992Z,86.47
2022-12-18T16:43:31.815Z,86.04
2022-12-18T16:46:01.760Z,84.90
2022-12-18T16:48:31.316Z,87.44
2022-12-18T16:51:06.386Z,88.01
2022-12-18T16:53:37.506Z,86.06
2022-12-18T16:56:08.789Z,86.05
2022-12-18T16:58:38.425Z,85.32
2022-12-18T17:01:13.449Z,86.76
2022-12-18T17:03:44.323Z,87.67
2022-12-18T17:06:16.044Z,85.18
2022-12-18T17:08:47.038Z,84.88
2022-12-18T17:11:16.827Z,87.77
2022-12-18T17:13:47.172Z,90.32
2022-12-18T17:16:18.634Z,91.38
2022-12-18T17:18:48.517Z,90.90
2022-12-18T17:21:18.841Z,92.32
2022-12-18T17:23:48.513Z,91.83
2022-12-18T17:26:18.430Z,91.46
2022-12-18T17:28:49.229Z,93.06
2022-12-18T17:31:21.687Z,91.94
2022-12-18T17:33:52.862Z,91.95
2022-12-18T17:36:24.591Z,91.04
2022-12-18T17:38:57.316Z,91.52
2022-12-18T17:41:28.441Z,91.27
2022-12-18T17:44:00.788Z,91.61
2022-12-18T17:46:31.831Z,91.28
2022-12-18T17:49:04.062Z,91.32
2022-12-18T17:51:34.092Z,91.37
2022-12-18T17:54:03.651Z,91.12
2022-12-18T17:56:34.110Z,91.41
2022-12-18T17:59:03.872Z,91.01
2022-12-18T18:01:33.588Z,90.94
2022-12-18T18:04:05.032Z,91.32
2022-12-18T18:06:34.992Z,92.69
2022-12-18T18:09:16.303Z,91.36
2022-12-18T18:12:05.965Z,92.77
2022-12-18T18:14:36.173Z,91.72
2022-12-18T18:17:05.843Z,91.99
2022-12-18T18:19:35.803Z,91.84
2022-12-18T18:22:05.377Z,91.38
2022-12-18T18:24:35.376Z,90.61
2022-12-18T18:27:05.035Z,89.39
2022-12-18T18:29:34.813Z,88.18
2022-12-18T18:32:04.550Z,90.27
2022-12-18T18:34:34.360Z,90.44
2022-12-18T18:37:04.287Z,91.82
2022-12-18T18:39:33.858Z,91.94
2022-12-18T18:42:03.752Z,90.30
2022-12-18T18:44:33.566Z,91.07
2022-12-18T18:47:03.612Z,90.92
2022-12-18T18:49:36.455Z,91.78
2022-12-18T18:52:06.700Z,91.36
2022-12-18T18:54:36.409Z,91.29
2022-12-18T18:57:23.369Z,90.16
2022-12-18T18:59:55.694Z,92.99
2022-12-18T19:02:25.460Z,93.52
2022-12-18T19:04:55.117Z,91.56
2022-12-18T19:07:30.665Z,90.49
2022-12-18T19:10:04.719Z,90.39
2022-12-18T19:13:05.355Z,90.52
2022-12-18T19:15:36.050Z,91.20
2022-12-18T19:18:06.178Z,91.48
2022-12-18T19:20:36.866Z,91.51
2022-12-18T19:23:07.026Z,92.05
2022-12-18T19:25:41.611Z,91.51
2022-12-18T19:28:22.087Z,90.99
2022-12-18T19:30:58.991Z,90.85
2022-12-18T19:33:42.863Z,92.87
2022-12-18T19:36:22.435Z,93.29
2022-12-18T19:38:55.130Z,91.71
2022-12-18T19:41:26.034Z,91.94
2022-12-18T19:44:04.832Z,90.84
2022-12-18T19:46:41.638Z,91.55
2022-12-18T19:49:17.542Z,91.16
2022-12-18T19:51:47.979Z,92.22
2022-12-18T19:54:20.108Z,91.94
2022-12-18T19:56:50.050Z,92.42
2022-12-18T19:59:19.997Z,92.24
2022-12-18T20:01:51.448Z,92.16
2022-12-18T20:04:21.544Z,92.35
2022-12-18T20:06:55.303Z,92.69
2022-12-18T20:09:25.658Z,93.02
2022-12-18T20:11:56.987Z,94.19
2022-12-18T20:14:27.103Z,94.34
2022-12-18T20:16:57.379Z,96.00
2022-12-18T20:19:29.996Z,96.07
2022-12-18T20:21:59.741Z,96.24
2022-12-18T20:24:29.312Z,94.40
2022-12-18T20:26:58.887Z,94.54
2022-12-18T20:29:28.671Z,94.94
2022-12-18T20:31:58.258Z,93.98
2022-12-18T20:34:27.864Z,95.38
2022-12-18T20:36:57.995Z,94.24
2022-12-18T20:39:28.631Z,94.67
2022-12-18T20:41:59.375Z,95.07
2022-12-18T20:44:29.344Z,95.13
2022-12-18T20:47:01.575Z,95.03
2022-12-18T20:49:36.091Z,94.28
2022-12-18T20:52:07.581Z,94.07
2022-12-18T20:54:37.460Z,95.66
2022-12-18T20:57:07.009Z,96.57
2022-12-18T20:59:36.547Z,96.56
2022-12-18T21:02:06.202Z,96.22
2022-12-18T21:04:36.231Z,97.72
2022-12-18T21:07:05.834Z,97.45
2022-12-18T21:09:37.622Z,97.92
2022-12-18T21:12:34.945Z,97.41
2022-12-18T21:15:12.997Z,97.66
2022-12-18T21:17:44.799Z,97.47
2022-12-18T21:20:18.233Z,96.96
2022-12-18T21:22:50.379Z,96.59
2022-12-18T21:25:20.746Z,96.10
2022-12-18T21:27:50.327Z,97.15
2022-12-18T21:30:19.953Z,98.50
2022-12-18T21:32:49.633Z,98.44
2022-12-18T21:35:20.558Z,98.15
2022-12-18T21:37:52.113Z,98.07
2022-12-18T21:40:21.843Z,99.99
2022-12-18T21:43:09.918Z,99.99
2022-12-18T21:45:41.505Z,99.99
2022-12-18T21:48:11.095Z,99.99
2022-12-18T21:50:40.601Z,99.99
2022-12-18T21:53:10.256Z,99.99
2022-12-18T21:55:39.982Z,99.99
2022-12-18T21:58:09.526Z,99.99
2022-12-18T22:00:39.242Z,99.99
2022-12-18T22:03:17.743Z,99.99
2022-12-18T22:06:00.756Z,99.99
2022-12-18T22:08:40.944Z,99.99
2022-12-18T22:11:14.490Z,99.99
2022-12-18T22:13:45.593Z,99.99
2022-12-18T22:16:15.058Z,99.99
2022-12-18T22:18:44.952Z,99.99
2022-12-18T22:21:35.880Z,99.99
2022-12-18T22:24:12.206Z,99.99
2022-12-18T22:26:42.336Z,99.99
2022-12-18T22:29:43.923Z,99.99
2022-12-18T22:32:30.828Z,99.99
2022-12-18T22:35:08.055Z,99.99
2022-12-18T22:37:40.564Z,99.99
2022-12-18T22:40:23.895Z,99.99
2022-12-18T22:42:58.253Z,99.99
2022-12-18T22:45:29.404Z,99.99
2022-12-18T22:47:59.863Z,99.99
2022-12-18T22:50:29.579Z,99.99
2022-12-18T22:52:59.105Z,99.99
2022-12-18T22:55:28.682Z,99.99
2022-12-18T22:57:58.625Z,99.99
2022-12-18T23:00:28.498Z,99.99
2022-12-18T23:03:00.584Z,99.99
2022-12-18T23:05:31.845Z,99.99
2022-12-18T23:08:01.455Z,99.99
2022-12-18T23:10:31.394Z,99.99
2022-12-18T23:13:01.293Z,99.99
2022-12-18T23:15:31.199Z,99.99
2022-12-18T23:18:01.622Z,99.99
2022-12-18T23:20:31.151Z,99.99
2022-12-18T23:23:00.694Z,99.99
2022-12-18T23:25:30.265Z,99.99
2022-12-18T23:28:00.192Z,99.99
2022-12-18T23:30:29.705Z,99.99
2022-12-18T23:32:59.290Z,99.99
2022-12-18T23:35:29.199Z,99.99
2022-12-18T23:37:59.801Z,99.99
2022-12-18T23:40:31.777Z,99.99
2022-12-18T23:43:01.690Z,99.99
2022-12-18T23:45:31.429Z,99.99
2022-12-18T23:48:01.026Z,99.99
2022-12-18T23:50:30.573Z,99.99
2022-12-18T23:53:05.106Z,99.99
2022-12-18T23:55:45.423Z,99.99
2022-12-18T23:58:22.958Z,99.99
